createdAt,value
2022-12-16T00:01:53.592Z,43.13
2022-12-16T00:06:56.387Z,43.40
2022-12-16T00:11:57.835Z,44.40
2022-12-16T00:16:59.240Z,42.90
2022-12-16T00:22:00.689Z,43.72
2022-12-16T00:27:02.181Z,40.80
2022-12-16T00:32:03.915Z,44.05
2022-12-16T00:37:05.382Z,42.60
2022-12-16T00:42:06.808Z,43.85
2022-12-16T00:47:08.237Z,42.13
2022-12-16T00:52:09.639Z,43.97
2022-12-16T00:57:11.062Z,43.60
2022-12-16T01:02:12.526Z,44.03
2022-12-16T01:07:14.026Z,40.40
2022-12-16T01:12:15.514Z,42.75
2022-12-16T01:17:16.989Z,37.25
2022-12-16T01:22:18.705Z,36.22
2022-12-16T01:27:20.148Z,36.60
2022-12-16T01:32:21.969Z,38.53
2022-12-16T01:37:24.362Z,35.20
2022-12-16T01:42:28.821Z,37.67
2022-12-16T01:47:33.285Z,34.78
2022-12-16T01:52:41.150Z,35.33
2022-12-16T01:57:50.336Z,36.30
2022-12-16T02:02:53.874Z,37.15
2022-12-16T02:08:10.382Z,34.95
2022-12-16T02:13:26.745Z,34.10
2022-12-16T02:18:43.149Z,35.65
2022-12-16T02:24:09.160Z,35.03
2022-12-16T02:29:42.716Z,34.42
2022-12-16T02:34:47.132Z,36.47
2022-12-16T02:40:04.137Z,35.53
2022-12-16T02:45:13.287Z,34.05
2022-12-16T02:50:20.713Z,36.58
2022-12-16T02:55:32.788Z,35.00
2022-12-16T03:00:47.687Z,34.75
2022-12-16T03:05:52.106Z,32.72
2022-12-16T03:10:59.824Z,33.13
2022-12-16T03:16:02.945Z,32.20
2022-12-16T03:21:07.742Z,34.55
2022-12-16T03:26:15.970Z,34.72
2022-12-16T03:31:27.060Z,33.70
2022-12-16T03:36:32.253Z,33.38
2022-12-16T03:41:34.898Z,33.35
2022-12-16T03:46:36.684Z,31.40
2022-12-16T03:51:38.166Z,32.70
2022-12-16T03:56:39.617Z,31.77
2022-12-16T04:01:41.706Z,31.65
2022-12-16T04:06:43.300Z,28.70
2022-12-16T04:12:03.421Z,29.98
2022-12-16T04:17:24.404Z,29.45
2022-12-16T04:22:48.414Z,28.63
2022-12-16T04:27:50.154Z,29.17
2022-12-16T04:33:17.449Z,29.05
2022-12-16T04:38:37.670Z,28.33
2022-12-16T04:43:57.640Z,30.58
2022-12-16T04:49:18.664Z,29.90
2022-12-16T04:54:38.452Z,30.58
2022-12-16T04:59:58.652Z,29.75
2022-12-16T05:05:18.691Z,30.00
2022-12-16T05:10:38.908Z,28.50
2022-12-16T05:15:59.589Z,25.90
2022-12-16T05:21:20.972Z,26.75
2022-12-16T05:26:41.016Z,25.55
2022-12-16T05:32:01.186Z,27.13
2022-12-16T05:37:21.163Z,24.83
2022-12-16T05:42:41.292Z,25.23
2022-12-16T05:48:01.423Z,23.50
2022-12-16T05:53:22.158Z,25.90
2022-12-16T05:58:42.312Z,25.00
2022-12-16T06:04:02.594Z,24.83
2022-12-16T06:09:22.978Z,23.70
2022-12-16T06:14:43.178Z,23.52
2022-12-16T06:20:03.225Z,24.58
2022-12-16T06:25:23.922Z,24.58
2022-12-16T06:30:43.820Z,24.17
2022-12-16T06:36:03.931Z,24.15
2022-12-16T06:41:24.050Z,25.02
2022-12-16T06:46:44.198Z,27.08
2022-12-16T06:52:04.259Z,28.48
2022-12-16T06:57:24.167Z,28.48
2022-12-16T07:02:44.392Z,27.73
2022-12-16T07:08:11.025Z,28.65
2022-12-16T07:13:31.512Z,26.75
2022-12-16T07:18:51.671Z,22.98
2022-12-16T07:24:11.604Z,25.35
2022-12-16T07:29:31.680Z,25.20
2022-12-16T07:34:51.859Z,24.13
2022-12-16T07:40:11.867Z,23.00
2022-12-16T07:45:32.005Z,24.80
2022-12-16T07:50:51.971Z,24.83
2022-12-16T07:56:12.987Z,23.50
2022-12-16T08:01:33.147Z,24.58
2022-12-16T08:06:53.204Z,27.38
2022-12-16T08:12:13.121Z,29.17
2022-12-16T08:17:33.207Z,29.73
2022-12-16T08:22:53.316Z,30.75
2022-12-16T08:28:15.897Z,30.45
2022-12-16T08:33:36.219Z,32.22
2022-12-16T08:38:56.549Z,30.13
2022-12-16T08:44:16.564Z,32.28
2022-12-16T08:49:36.759Z,31.35
2022-12-16T08:54:56.819Z,33.60
2022-12-16T09:00:17.006Z,29.52
2022-12-16T09:05:37.136Z,34.08
2022-12-16T09:10:57.276Z,35.05
2022-12-16T09:16:19.772Z,35.38
2022-12-16T09:21:40.484Z,35.92
2022-12-16T09:27:00.217Z,37.35
2022-12-16T09:32:20.097Z,34.33
2022-12-16T09:37:40.256Z,37.40
2022-12-16T09:43:05.822Z,36.47
2022-12-16T09:48:37.443Z,36.42
2022-12-16T09:53:59.038Z,37.83
2022-12-16T09:59:24.771Z,38.33
2022-12-16T10:04:44.826Z,36.58
2022-12-16T10:10:21.998Z,39.13
2022-12-16T10:15:44.996Z,39.67
2022-12-16T10:21:10.935Z,42.13
2022-12-16T10:26:35.456Z,40.03
2022-12-16T10:31:56.060Z,40.13
2022-12-16T10:37:20.960Z,41.65
2022-12-16T10:42:48.913Z,41.40
2022-12-16T10:48:08.945Z,40.15
2022-12-16T10:53:45.058Z,38.15
2022-12-16T10:59:12.602Z,42.05
2022-12-16T11:04:51.666Z,40.92
2022-12-16T11:10:19.878Z,39.17
2022-12-16T11:15:50.029Z,38.95
2022-12-16T11:21:24.788Z,39.70
2022-12-16T11:26:44.730Z,39.92
2022-12-16T11:32:09.473Z,40.30
2022-12-16T11:37:29.223Z,38.45
2022-12-16T11:42:51.353Z,39.20
2022-12-16T11:48:15.022Z,39.17
2022-12-16T11:53:44.217Z,39.28
2022-12-16T11:59:11.469Z,40.42
2022-12-16T12:04:33.150Z,40.65
2022-12-16T12:09:59.988Z,40.60
2022-12-16T12:15:20.097Z,40.17
2022-12-16T12:21:05.954Z,39.58
2022-12-16T12:26:32.131Z,39.45
2022-12-16T12:32:04.405Z,40.80
2022-12-16T12:37:27.359Z,40.28
2022-12-16T12:42:57.155Z,40.72
2022-12-16T12:48:56.098Z,40.17
2022-12-16T12:54:33.231Z,41.08
2022-12-16T13:00:02.231Z,39.95
2022-12-16T13:05:24.759Z,40.38
2022-12-16T13:10:44.738Z,40.72
2022-12-16T13:16:04.995Z,41.92
2022-12-16T13:22:04.920Z,42.10
2022-12-16T13:27:31.575Z,37.75
2022-12-16T13:32:52.075Z,40.42
2022-12-16T13:38:25.038Z,42.40
2022-12-16T13:44:03.700Z,43.70
2022-12-16T13:50:09.278Z,41.30
2022-12-16T13:55:38.123Z,41.40
2022-12-16T14:01:00.319Z,40.87
2022-12-16T14:06:23.540Z,38.88
2022-12-16T14:12:05.570Z,43.20
2022-12-16T14:17:32.327Z,41.30
2022-12-16T14:23:32.760Z,44.20
2022-12-16T14:29:00.517Z,43.65
2022-12-16T14:34:22.597Z,42.38
2022-12-16T14:39:48.513Z,42.90
2022-12-16T14:45:08.572Z,41.20
2022-12-16T14:50:45.270Z,43.42
2022-12-16T14:56:05.243Z,41.60
2022-12-16T15:01:36.326Z,42.88
2022-12-16T15:07:03.156Z,44.80
2022-12-16T15:12:25.479Z,46.03
2022-12-16T15:18:14.752Z,44.22
2022-12-16T15:23:57.937Z,39.88
2022-12-16T15:29:18.034Z,43.53
2022-12-16T15:34:49.353Z,42.75
2022-12-16T15:40:09.462Z,42.88
2022-12-16T15:45:41.251Z,43.30
2022-12-16T15:51:12.061Z,43.38
2022-12-16T15:56:40.869Z,42.10
2022-12-16T16:02:04.838Z,42.10
2022-12-16T16:07:35.405Z,40.55
2022-12-16T16:12:55.465Z,41.55
2022-12-16T16:18:24.484Z,42.60
2022-12-16T16:23:44.370Z,36.78
2022-12-16T16:29:04.428Z,39.67
2022-12-16T16:34:24.282Z,43.22
2022-12-16T16:39:44.483Z,42.80
2022-12-16T16:45:04.709Z,41.67
2022-12-16T16:50:25.516Z,41.63
2022-12-16T16:55:45.624Z,41.70
2022-12-16T17:01:05.851Z,39.08
2022-12-16T17:06:25.798Z,42.28
2022-12-16T17:11:46.845Z,40.60
2022-12-16T17:17:06.951Z,43.45
2022-12-16T17:22:27.078Z,44.35
2022-12-16T17:27:47.302Z,44.55
2022-12-16T17:33:07.395Z,43.17
2022-12-16T17:38:32.022Z,45.17
2022-12-16T17:43:52.206Z,46.10
2022-12-16T17:49:17.368Z,43.08
2022-12-16T17:54:37.531Z,40.83
2022-12-16T17:59:57.532Z,43.90
2022-12-16T18:05:17.788Z,43.88
2022-12-16T18:10:37.782Z,46.40
2022-12-16T18:15:58.067Z,48.65
2022-12-16T18:21:30.774Z,47.00
2022-12-16T18:26:50.901Z,46.65
2022-12-16T18:32:10.958Z,48.13
2022-12-16T18:37:32.512Z,47.55
2022-12-16T18:42:52.540Z,47.88
2022-12-16T18:48:12.582Z,48.05
2022-12-16T18:53:33.110Z,48.88
2022-12-16T18:58:54.349Z,47.38
2022-12-16T19:04:16.087Z,51.13
2022-12-16T19:09:35.926Z,49.33
2022-12-16T19:14:55.897Z,51.47
2022-12-16T19:20:16.171Z,48.38
2022-12-16T19:25:36.156Z,51.05
2022-12-16T19:30:56.494Z,46.80
2022-12-16T19:36:16.415Z,50.38
2022-12-16T19:41:37.042Z,50.28
2022-12-16T19:46:57.090Z,51.63
2022-12-16T19:52:17.320Z,50.20
2022-12-16T19:57:37.411Z,49.25
2022-12-16T20:02:57.823Z,48.53
2022-12-16T20:08:17.938Z,46.65
2022-12-16T20:13:37.842Z,51.03
2022-12-16T20:18:57.920Z,50.35
2022-12-16T20:24:17.996Z,53.50
2022-12-16T20:29:37.964Z,51.40
2022-12-16T20:34:58.105Z,53.35
2022-12-16T20:40:18.270Z,53.05
2022-12-16T20:45:38.448Z,52.80
2022-12-16T20:50:58.515Z,54.03
2022-12-16T20:56:24.191Z,53.00
2022-12-16T21:02:21.729Z,52.78
2022-12-16T21:07:35.798Z,51.67
2022-12-16T21:12:55.774Z,53.05
2022-12-16T21:18:21.007Z,51.53
2022-12-16T21:23:41.430Z,53.08
2022-12-16T21:29:01.765Z,52.42
2022-12-16T21:34:22.691Z,50.90
2022-12-16T21:39:42.545Z,50.92
2022-12-16T21:45:02.807Z,53.38
2022-12-16T21:50:23.195Z,50.20
2022-12-16T21:55:43.609Z,52.35
2022-12-16T22:01:03.950Z,51.67
2022-12-16T22:06:24.339Z,47.42
2022-12-16T22:11:44.498Z,50.45
2022-12-16T22:17:05.823Z,53.42
2022-12-16T22:22:25.885Z,50.75
2022-12-16T22:27:46.093Z,50.83
2022-12-16T22:33:06.319Z,53.10
2022-12-16T22:38:43.171Z,50.35
2022-12-16T22:44:03.529Z,51.33
2022-12-16T22:49:23.632Z,54.25
2022-12-16T22:54:43.968Z,52.15
2022-12-16T23:00:04.225Z,47.25
2022-12-16T23:05:27.720Z,49.42
2022-12-16T23:10:48.441Z,52.50
2022-12-16T23:16:08.627Z,51.25
2022-12-16T23:21:35.168Z,50.22
2022-12-16T23:26:55.250Z,50.10
2022-12-16T23:32:16.105Z,52.67
2022-12-16T23:37:36.777Z,49.80
2022-12-16T23:42:56.888Z,48.25
2022-12-16T23:48:26.518Z,51.40
2022-12-16T23:59:06.622Z,51.05
